Time;durP1;ratioP1;P1;durP2;ratioP2;P2;SDS_P1;SDS_P2;PMS_P1;PMS_P2;Temp;Humidity;BMP_temperature;BMP_pressure;BME280_temperature;BME280_humidity;BME280_pressure;Samples;Min_cycle;Max_cycle;Signal;HPM_P1;HPM_P2
2023/08/30 00:02:19;;;;;;;15.18;12.27;;;16.30;99.90;;;;;;5042453;28;20494;-72
2023/08/30 00:04:45;;;;;;;17.30;13.93;;;16.30;99.90;;;;;;5047615;28;20465;-71
2023/08/30 00:07:10;;;;;;;19.67;13.43;;;16.30;99.90;;;;;;5045280;28;20017;-71
2023/08/30 00:09:36;;;;;;;17.23;13.88;;;16.30;99.90;;;;;;5048761;28;20039;-72
2023/08/30 00:12:03;;;;;;;17.05;13.60;;;16.30;99.90;;;;;;5049757;28;20029;-71
2023/08/30 00:14:28;;;;;;;15.90;11.80;;;16.40;99.90;;;;;;5044464;28;20028;-72
2023/08/30 00:16:54;;;;;;;18.23;12.15;;;16.40;99.90;;;;;;5040995;28;20066;-71
2023/08/30 00:19:20;;;;;;;16.10;12.60;;;16.40;99.90;;;;;;5042825;28;20044;-71
2023/08/30 00:21:46;;;;;;;13.25;10.50;;;16.40;99.90;;;;;;5048645;28;20157;-71
2023/08/30 00:24:11;;;;;;;15.98;12.15;;;16.40;99.90;;;;;;5039142;28;20107;-72
2023/08/30 00:26:37;;;;;;;13.00;11.60;;;16.40;99.90;;;;;;5039788;28;20048;-71
2023/08/30 00:29:03;;;;;;;14.75;11.48;;;16.40;99.90;;;;;;5042588;28;20385;-71
2023/08/30 00:31:28;;;;;;;15.50;11.57;;;16.50;99.90;;;;;;5042030;28;20033;-71
2023/08/30 00:33:54;;;;;;;16.33;12.50;;;16.40;99.90;;;;;;5049117;28;20053;-71
2023/08/30 00:36:20;;;;;;;15.43;11.38;;;16.40;99.90;;;;;;5043083;28;20041;-71
2023/08/30 00:38:46;;;;;;;14.25;11.45;;;16.40;99.90;;;;;;5040770;28;20442;-71
2023/08/30 00:41:11;;;;;;;14.57;11.25;;;16.40;99.90;;;;;;5048190;28;20021;-71
2023/08/30 00:43:37;;;;;;;13.18;10.98;;;16.50;99.90;;;;;;5040404;28;20033;-71
2023/08/30 00:46:03;;;;;;;14.88;11.10;;;16.40;99.90;;;;;;5041502;28;20029;-72
2023/08/30 00:48:29;;;;;;;17.17;12.48;;;16.40;99.90;;;;;;5039079;28;20094;-71
2023/08/30 00:50:55;;;;;;;11.95;10.52;;;16.40;99.90;;;;;;5043317;28;20486;-71
2023/08/30 00:53:21;;;;;;;15.13;11.00;;;16.40;99.90;;;;;;5043001;28;20029;-71
2023/08/30 00:55:46;;;;;;;14.90;10.70;;;16.40;99.90;;;;;;5040688;28;20026;-71
2023/08/30 00:58:12;;;;;;;11.80;10.63;;;16.40;99.90;;;;;;5042355;28;20036;-71
2023/08/30 01:00:39;;;;;;;13.35;11.40;;;16.30;99.90;;;;;;5039418;28;20090;-71
2023/08/30 01:03:07;;;;;;;12.80;9.75;;;16.30;99.90;;;;;;5041630;28;20036;-72
2023/08/30 01:05:33;;;;;;;10.20;9.13;;;16.30;99.90;;;;;;5045841;28;20432;-71
2023/08/30 01:07:59;;;;;;;13.45;10.07;;;16.30;99.90;;;;;;5041961;28;20030;-71
2023/08/30 01:10:53;;;;;;;16.63;11.43;;;16.20;99.90;;;;;;5042289;28;20013;-71
2023/08/30 01:13:20;;;;;;;12.00;10.88;;;16.20;99.90;;;;;;5035493;28;20037;-71
2023/08/30 01:15:48;;;;;;;12.82;10.48;;;16.20;99.90;;;;;;5042063;28;20156;-71
2023/08/30 01:18:17;;;;;;;12.70;10.32;;;16.10;99.90;;;;;;5040167;28;20025;-71
2023/08/30 01:20:44;;;;;;;14.68;10.23;;;16.10;99.90;;;;;;5041977;28;20532;-71
2023/08/30 01:23:15;;;;;;;13.98;10.73;;;16.10;99.90;;;;;;5044281;28;20022;-71
2023/08/30 01:26:18;;;;;;;14.85;10.88;;;16.00;99.90;;;;;;5039209;28;20029;-71
2023/08/30 01:28:45;;;;;;;14.35;11.07;;;16.00;99.90;;;;;;5042948;28;20021;-72
2023/08/30 01:31:13;;;;;;;13.48;11.23;;;16.00;99.90;;;;;;5047796;28;20079;-71
2023/08/30 01:33:39;;;;;;;15.48;11.55;;;16.00;99.90;;;;;;5043014;28;20104;-71
2023/08/30 01:36:05;;;;;;;15.43;11.85;;;15.90;99.90;;;;;;5041788;28;20048;-71
2023/08/30 01:38:32;;;;;;;18.25;12.15;;;15.90;99.90;;;;;;5042843;28;20043;-71
2023/08/30 01:40:59;;;;;;;21.55;13.23;;;15.90;99.90;;;;;;5043178;28;20420;-71
2023/08/30 01:43:28;;;;;;;19.17;12.80;;;15.90;99.90;;;;;;5050221;28;20075;-71
2023/08/30 01:45:56;;;;;;;14.02;12.10;;;15.90;99.90;;;;;;5043957;28;20036;-71
2023/08/30 01:48:23;;;;;;;13.88;10.48;;;15.90;99.90;;;;;;5046080;28;20017;-71
2023/08/30 01:50:49;;;;;;;16.92;11.38;;;15.80;99.90;;;;;;5043243;28;20460;-72
2023/08/30 01:53:16;;;;;;;14.07;11.35;;;15.80;99.90;;;;;;5044620;28;20018;-72
2023/08/30 01:55:43;;;;;;;15.43;11.90;;;15.80;99.90;;;;;;5047603;28;21012;-71
2023/08/30 01:58:09;;;;;;;17.10;12.05;;;15.80;99.90;;;;;;5042974;28;20018;-71
2023/08/30 02:00:39;;;;;;;15.27;12.68;;;15.80;99.90;;;;;;5043740;28;20393;-71
2023/08/30 02:03:12;;;;;;;14.65;11.85;;;15.90;99.90;;;;;;5046785;28;20079;-73
2023/08/30 02:05:48;;;;;;;19.83;13.60;;;15.90;99.90;;;;;;5045816;28;20057;-72
2023/08/30 02:08:16;;;;;;;15.60;11.70;;;16.00;99.90;;;;;;5045272;28;20029;-71
2023/08/30 02:10:49;;;;;;;15.40;12.63;;;15.90;99.90;;;;;;5042721;28;20013;-71
2023/08/30 02:13:16;;;;;;;16.65;11.52;;;15.80;99.90;;;;;;5039788;28;20028;-72
2023/08/30 02:15:43;;;;;;;15.70;11.45;;;15.90;99.90;;;;;;5043946;28;20017;-71
2023/08/30 02:18:09;;;;;;;18.00;13.50;;;15.90;99.90;;;;;;5045966;28;20047;-70
2023/08/30 02:20:35;;;;;;;14.88;12.35;;;15.90;99.90;;;;;;5041647;28;20025;-71
2023/08/30 02:23:01;;;;;;;16.58;12.02;;;15.90;99.90;;;;;;5051292;28;20037;-72
2023/08/30 02:25:27;;;;;;;15.90;11.50;;;15.90;99.90;;;;;;5048122;28;20024;-71
2023/08/30 02:27:52;;;;;;;16.08;12.90;;;16.00;99.90;;;;;;5045911;28;20127;-71
2023/08/30 02:30:19;;;;;;;16.10;12.80;;;15.90;99.90;;;;;;5040645;28;20440;-71
2023/08/30 02:32:44;;;;;;;16.73;12.73;;;16.00;99.90;;;;;;5044051;28;20053;-71
2023/08/30 02:35:10;;;;;;;22.27;17.55;;;16.00;99.90;;;;;;5050407;28;20056;-71
2023/08/30 02:37:36;;;;;;;22.50;17.38;;;15.90;99.90;;;;;;5043953;28;20033;-71
2023/08/30 02:40:02;;;;;;;22.92;17.92;;;16.00;99.90;;;;;;5046718;28;20044;-71
2023/08/30 02:42:28;;;;;;;25.75;17.90;;;16.00;99.90;;;;;;5049650;28;20029;-71
2023/08/30 02:44:54;;;;;;;24.15;16.77;;;16.00;99.90;;;;;;5049532;28;20021;-71
2023/08/30 02:47:20;;;;;;;18.33;13.68;;;16.00;99.90;;;;;;5046632;28;20633;-71
2023/08/30 02:49:45;;;;;;;19.35;15.13;;;16.00;99.90;;;;;;5041328;28;20504;-71
2023/08/30 02:52:11;;;;;;;25.77;17.30;;;16.00;99.90;;;;;;5043336;28;20024;-71
2023/08/30 02:54:37;;;;;;;20.27;16.80;;;16.00;99.90;;;;;;5048113;28;20033;-72
2023/08/30 02:57:03;;;;;;;16.40;13.07;;;16.00;99.90;;;;;;5044666;28;20444;-72
2023/08/30 02:59:28;;;;;;;17.90;12.80;;;16.00;99.90;;;;;;5042809;28;20033;-71
2023/08/30 03:01:54;;;;;;;18.30;15.45;;;16.00;99.90;;;;;;5041536;28;20110;-72
2023/08/30 03:04:20;;;;;;;23.80;17.50;;;16.00;99.90;;;;;;5046552;28;20029;-71
2023/08/30 03:06:46;;;;;;;23.67;17.65;;;16.10;99.90;;;;;;5053576;28;20415;-71
2023/08/30 03:09:11;;;;;;;22.25;14.68;;;16.10;99.90;;;;;;5043695;28;20417;-71
2023/08/30 03:11:37;;;;;;;20.00;14.52;;;16.00;99.90;;;;;;5044187;28;20382;-71
2023/08/30 03:14:03;;;;;;;21.55;15.93;;;16.00;99.90;;;;;;5044889;28;20025;-72
2023/08/30 03:16:29;;;;;;;19.50;14.02;;;15.90;99.90;;;;;;5042135;28;20385;-73
2023/08/30 03:18:54;;;;;;;23.52;18.85;;;15.90;99.90;;;;;;5046875;28;20017;-72
2023/08/30 03:21:20;;;;;;;22.05;16.48;;;16.00;99.90;;;;;;5043017;28;20037;-72
2023/08/30 03:23:45;;;;;;;22.48;16.05;;;16.00;99.90;;;;;;5042862;28;20017;-71
2023/08/30 03:26:13;;;;;;;22.55;18.80;;;16.00;99.90;;;;;;5042811;28;20529;-72
2023/08/30 03:28:39;;;;;;;27.23;20.15;;;16.00;99.90;;;;;;5043237;28;20026;-71
2023/08/30 03:31:21;;;;;;;26.40;20.95;;;16.10;99.90;;;;;;5043441;28;20037;-71
2023/08/30 03:33:48;;;;;;;34.47;22.73;;;16.00;99.90;;;;;;5042889;28;20026;-71
2023/08/30 03:36:16;;;;;;;25.30;20.48;;;16.00;99.90;;;;;;5043214;28;20122;-71
2023/08/30 03:38:42;;;;;;;32.92;23.48;;;16.10;99.90;;;;;;5043428;28;20128;-71
2023/08/30 03:41:09;;;;;;;32.67;23.08;;;16.10;99.90;;;;;;5043844;28;20033;-71
2023/08/30 03:43:35;;;;;;;30.90;22.27;;;16.10;99.90;;;;;;5042716;28;20394;-72
2023/08/30 03:46:02;;;;;;;29.90;22.98;;;16.10;99.90;;;;;;5043166;28;20021;-71
2023/08/30 03:48:27;;;;;;;31.65;22.48;;;16.10;99.90;;;;;;5042492;28;20036;-71
2023/08/30 03:50:54;;;;;;;30.63;23.08;;;16.10;99.90;;;;;;5069594;28;20017;-71
2023/08/30 03:53:20;;;;;;;27.83;21.70;;;16.10;99.90;;;;;;5039609;28;20022;-71
2023/08/30 03:55:45;;;;;;;29.67;23.65;;;16.10;99.90;;;;;;5042778;28;20489;-71
2023/08/30 03:58:11;;;;;;;26.70;22.50;;;16.10;99.90;;;;;;5040659;28;20029;-71
2023/08/30 04:00:38;;;;;;;28.50;20.95;;;16.00;99.90;;;;;;5044920;28;20048;-71
2023/08/30 04:03:05;;;;;;;30.75;23.48;;;16.00;99.90;;;;;;5041991;28;20033;-71
2023/08/30 04:05:34;;;;;;;28.63;21.48;;;16.00;99.90;;;;;;5039288;28;20022;-72
2023/08/30 04:08:01;;;;;;;27.70;21.38;;;16.00;99.90;;;;;;5041084;28;20160;-72
2023/08/30 04:10:26;;;;;;;28.15;21.30;;;16.00;99.90;;;;;;5046217;28;20017;-71
2023/08/30 04:12:52;;;;;;;26.90;21.02;;;16.00;99.90;;;;;;5045850;28;20474;-72
2023/08/30 04:15:18;;;;;;;32.10;22.90;;;16.00;99.90;;;;;;5043602;28;20040;-71
2023/08/30 04:17:43;;;;;;;26.58;21.92;;;16.00;99.90;;;;;;5051117;28;20020;-71
2023/08/30 04:20:12;;;;;;;29.52;23.88;;;16.00;99.90;;;;;;5044508;28;20118;-71
2023/08/30 04:22:38;;;;;;;26.98;21.25;;;16.00;99.90;;;;;;5045792;28;20035;-71
2023/08/30 04:25:04;;;;;;;28.63;21.48;;;16.00;99.90;;;;;;5047479;28;20428;-71
2023/08/30 04:27:30;;;;;;;24.90;19.60;;;16.00;99.90;;;;;;5052202;28;20029;-71
2023/08/30 04:29:56;;;;;;;26.23;21.02;;;15.90;99.90;;;;;;5041102;28;20103;-71
2023/08/30 04:32:21;;;;;;;28.48;21.60;;;15.90;99.90;;;;;;5043159;28;20033;-71
2023/08/30 04:34:47;;;;;;;27.45;21.63;;;15.90;99.90;;;;;;5042395;28;20017;-71
2023/08/30 04:37:13;;;;;;;26.02;20.75;;;15.80;99.90;;;;;;5044915;28;20044;-71
2023/08/30 04:39:40;;;;;;;28.17;22.50;;;15.80;99.90;;;;;;5042937;28;20018;-72
2023/08/30 04:42:06;;;;;;;27.50;22.13;;;15.70;99.90;;;;;;5043012;28;20067;-71
2023/08/30 04:44:32;;;;;;;28.80;22.05;;;15.80;99.90;;;;;;5044155;28;20018;-71
2023/08/30 04:46:57;;;;;;;29.38;21.75;;;15.80;99.90;;;;;;5040879;28;20033;-72
2023/08/30 04:49:25;;;;;;;26.30;21.88;;;15.80;99.90;;;;;;5041111;28;20025;-72
2023/08/30 04:51:51;;;;;;;27.85;22.17;;;15.90;99.90;;;;;;5044238;28;20044;-73
2023/08/30 04:54:17;;;;;;;28.50;21.25;;;15.80;99.90;;;;;;5048031;28;20518;-72
2023/08/30 04:56:42;;;;;;;28.48;21.80;;;15.80;99.90;;;;;;5041364;28;20104;-72
2023/08/30 04:59:08;;;;;;;24.33;20.27;;;15.90;99.90;;;;;;5046465;28;20090;-72
2023/08/30 05:01:34;;;;;;;27.08;21.55;;;15.90;99.90;;;;;;5035721;28;20052;-72
2023/08/30 05:03:59;;;;;;;31.20;21.90;;;15.90;99.90;;;;;;5036760;28;20056;-72
2023/08/30 05:06:26;;;;;;;28.90;21.98;;;15.90;99.90;;;;;;5042387;28;20044;-72
2023/08/30 05:08:52;;;;;;;31.23;22.88;;;15.90;99.90;;;;;;5040766;28;20474;-72
2023/08/30 05:11:17;;;;;;;32.33;22.90;;;15.90;99.90;;;;;;5042382;28;20045;-72
2023/08/30 05:13:43;;;;;;;32.30;23.00;;;15.90;99.90;;;;;;5041916;28;20021;-72
2023/08/30 05:16:09;;;;;;;33.92;23.95;;;15.80;99.90;;;;;;5040694;28;20119;-72
2023/08/30 05:18:35;;;;;;;32.25;24.23;;;15.90;99.90;;;;;;5041275;28;20025;-72
2023/08/30 05:21:03;;;;;;;31.27;23.17;;;15.90;99.90;;;;;;5043053;28;20028;-72
2023/08/30 05:23:29;;;;;;;28.13;22.45;;;15.90;99.90;;;;;;5042745;28;20047;-72
2023/08/30 05:25:54;;;;;;;33.45;24.38;;;15.90;99.90;;;;;;5046010;28;20017;-72
2023/08/30 05:28:20;;;;;;;30.50;23.17;;;15.90;99.90;;;;;;5041672;28;20052;-72
2023/08/30 05:30:46;;;;;;;32.45;23.38;;;16.00;99.90;;;;;;5040015;28;20657;-72
2023/08/30 05:33:11;;;;;;;35.65;24.33;;;16.00;99.90;;;;;;5041733;28;20052;-72
2023/08/30 05:35:37;;;;;;;30.85;23.52;;;16.00;99.90;;;;;;5042653;28;20025;-71
2023/08/30 05:38:03;;;;;;;31.23;24.15;;;15.90;99.90;;;;;;5046308;28;20033;-71
2023/08/30 05:40:29;;;;;;;34.05;24.33;;;15.90;99.90;;;;;;5040564;28;20036;-71
2023/08/30 05:42:55;;;;;;;33.92;24.75;;;15.80;99.90;;;;;;5034929;28;20037;-71
2023/08/30 05:45:21;;;;;;;34.40;24.92;;;15.90;99.90;;;;;;5039253;28;20417;-71
2023/08/30 05:47:46;;;;;;;31.20;24.38;;;15.90;99.90;;;;;;5044473;28;20666;-72
2023/08/30 05:50:12;;;;;;;30.73;24.15;;;16.00;99.90;;;;;;5041396;28;20485;-71
2023/08/30 05:52:41;;;;;;;32.05;22.48;;;16.00;99.90;;;;;;5042432;28;20029;-72
2023/08/30 05:55:08;;;;;;;29.58;22.85;;;16.10;99.90;;;;;;5038843;28;20029;-71
2023/08/30 05:57:34;;;;;;;31.27;21.45;;;16.10;99.90;;;;;;5045315;28;20013;-71
2023/08/30 06:00:00;;;;;;;25.88;21.70;;;16.00;99.90;;;;;;5044471;28;20041;-71
2023/08/30 06:02:26;;;;;;;30.00;22.52;;;16.00;99.90;;;;;;5044431;28;20030;-71
2023/08/30 06:04:52;;;;;;;29.38;21.83;;;16.00;99.90;;;;;;5040648;28;20382;-71
2023/08/30 06:07:18;;;;;;;30.55;21.80;;;16.10;99.90;;;;;;5039564;28;20037;-71
2023/08/30 06:09:44;;;;;;;28.70;20.45;;;16.10;99.90;;;;;;5045339;28;20029;-71
2023/08/30 06:12:10;;;;;;;29.73;23.17;;;16.20;99.90;;;;;;5041042;28;20033;-70
2023/08/30 06:14:35;;;;;;;25.83;21.00;;;16.20;99.90;;;;;;5044335;28;20078;-71
2023/08/30 06:17:02;;;;;;;26.13;21.00;;;16.20;99.90;;;;;;5041336;28;20028;-71
2023/08/30 06:19:27;;;;;;;30.02;22.17;;;16.30;99.90;;;;;;5038813;28;20370;-71
2023/08/30 06:21:53;;;;;;;29.10;22.30;;;16.30;99.90;;;;;;5046312;28;20090;-71
2023/08/30 06:24:19;;;;;;;27.90;21.77;;;16.20;99.90;;;;;;5043665;28;20036;-70
2023/08/30 06:26:45;;;;;;;26.17;20.48;;;16.20;99.90;;;;;;5047003;28;20485;-71
2023/08/30 06:29:10;;;;;;;30.95;23.67;;;16.20;99.90;;;;;;5045670;28;20221;-72
2023/08/30 06:31:36;;;;;;;28.05;21.95;;;16.20;99.90;;;;;;5045507;28;20032;-73
2023/08/30 06:34:02;;;;;;;32.95;22.60;;;16.20;99.90;;;;;;5045986;28;20355;-73
2023/08/30 06:36:28;;;;;;;33.17;24.17;;;16.30;99.90;;;;;;5041929;28;20043;-71
2023/08/30 06:38:54;;;;;;;29.38;24.30;;;16.30;99.90;;;;;;5048516;28;20474;-73
2023/08/30 06:41:19;;;;;;;27.75;22.65;;;16.20;99.90;;;;;;5043584;28;20063;-72
2023/08/30 06:43:45;;;;;;;27.90;20.83;;;16.30;99.90;;;;;;5045020;28;20044;-73
2023/08/30 06:46:10;;;;;;;24.63;19.17;;;16.30;99.90;;;;;;5043838;28;20107;-73
2023/08/30 06:48:36;;;;;;;21.80;17.17;;;16.30;99.90;;;;;;5043346;28;20720;-72
2023/08/30 06:51:02;;;;;;;24.48;19.52;;;16.30;99.90;;;;;;5048273;28;20545;-72
2023/08/30 06:53:28;;;;;;;24.63;16.15;;;16.30;99.90;;;;;;5040237;28;20568;-73
2023/08/30 06:55:58;;;;;;;20.35;14.93;;;16.20;99.90;;;;;;5045914;28;20088;-72
2023/08/30 06:58:25;;;;;;;21.02;16.00;;;16.20;99.90;;;;;;5042625;28;20048;-73
2023/08/30 07:00:50;;;;;;;16.27;13.93;;;16.30;99.90;;;;;;5047902;28;20477;-72
2023/08/30 07:03:16;;;;;;;19.92;14.32;;;16.20;99.90;;;;;;5042418;28;20052;-73
2023/08/30 07:05:43;;;;;;;21.75;12.02;;;16.20;99.90;;;;;;5043470;28;20032;-72
2023/08/30 07:08:09;;;;;;;18.30;14.05;;;16.20;99.90;;;;;;5047546;28;20033;-73
2023/08/30 07:10:35;;;;;;;18.25;12.38;;;16.10;99.90;;;;;;5042670;28;20584;-74
2023/08/30 07:13:01;;;;;;;14.15;10.63;;;16.20;99.90;;;;;;5045552;28;20029;-73
2023/08/30 07:15:27;;;;;;;13.30;11.02;;;16.20;99.90;;;;;;5041096;28;20033;-74
2023/08/30 07:17:53;;;;;;;11.57;10.02;;;16.30;99.90;;;;;;5047077;28;20503;-73
2023/08/30 07:20:19;;;;;;;11.95;9.45;;;16.30;99.90;;;;;;5043042;28;20029;-74
2023/08/30 07:22:45;;;;;;;12.32;8.77;;;16.20;99.90;;;;;;5049008;28;20037;-73
2023/08/30 07:25:12;;;;;;;12.80;9.85;;;16.20;99.90;;;;;;5040549;28;20029;-73
2023/08/30 07:27:37;;;;;;;14.70;8.23;;;16.10;99.90;;;;;;5039786;28;20032;-73
2023/08/30 07:30:04;;;;;;;9.85;8.52;;;16.20;99.90;;;;;;5047370;28;20363;-73
2023/08/30 07:32:30;;;;;;;13.57;8.55;;;16.20;99.90;;;;;;5040570;28;20490;-73
2023/08/30 07:34:56;;;;;;;10.18;7.45;;;16.20;99.90;;;;;;5049190;28;20045;-73
2023/08/30 07:37:22;;;;;;;7.72;6.70;;;16.00;99.90;;;;;;5042966;28;20057;-73
2023/08/30 07:39:48;;;;;;;12.02;7.70;;;16.10;99.90;;;;;;5042729;28;20477;-73
2023/08/30 07:42:14;;;;;;;8.75;6.85;;;16.00;99.90;;;;;;5046930;28;20051;-73
2023/08/30 07:44:40;;;;;;;9.10;6.43;;;16.00;99.90;;;;;;5042336;28;20021;-73
2023/08/30 07:47:06;;;;;;;8.75;6.18;;;16.00;99.90;;;;;;5044143;28;20025;-73
2023/08/30 07:49:32;;;;;;;7.10;6.40;;;16.00;99.90;;;;;;5039743;28;20056;-72
2023/08/30 07:51:57;;;;;;;9.10;6.30;;;16.00;99.90;;;;;;5048134;28;20025;-73
2023/08/30 07:54:23;;;;;;;6.90;5.90;;;16.10;99.90;;;;;;5047695;28;20020;-72
2023/08/30 07:56:49;;;;;;;6.82;6.13;;;16.10;99.90;;;;;;5042224;28;20078;-74
2023/08/30 07:59:17;;;;;;;9.93;6.35;;;16.00;99.90;;;;;;5044889;28;20095;-74
2023/08/30 08:01:43;;;;;;;6.95;5.97;;;16.00;99.90;;;;;;5041447;28;20100;-73
2023/08/30 08:04:08;;;;;;;11.45;6.63;;;15.90;99.90;;;;;;5045146;28;20104;-73
2023/08/30 08:06:34;;;;;;;7.72;6.82;;;15.90;99.90;;;;;;5046482;28;20025;-72
2023/08/30 08:09:00;;;;;;;8.57;6.40;;;15.90;99.90;;;;;;5043318;28;20112;-72
2023/08/30 08:11:26;;;;;;;10.93;6.88;;;15.80;99.90;;;;;;5041791;28;20477;-74
2023/08/30 08:13:52;;;;;;;8.48;7.15;;;15.90;99.90;;;;;;5046405;28;20033;-74
2023/08/30 08:16:18;;;;;;;9.13;7.60;;;16.00;99.90;;;;;;5040638;28;20017;-73
2023/08/30 08:18:43;;;;;;;9.98;7.72;;;16.00;99.90;;;;;;5045110;28;20032;-72
2023/08/30 08:21:09;;;;;;;14.43;7.68;;;16.00;99.90;;;;;;5043052;28;20087;-72
2023/08/30 08:23:35;;;;;;;13.18;7.28;;;16.00;99.90;;;;;;5047498;28;20055;-73
2023/08/30 08:26:02;;;;;;;9.73;7.10;;;16.00;99.90;;;;;;5050584;28;20131;-71
2023/08/30 08:28:28;;;;;;;10.27;6.93;;;15.90;99.90;;;;;;5040173;28;20047;-72
2023/08/30 08:30:54;;;;;;;9.13;7.30;;;15.90;99.90;;;;;;5043255;28;20571;-72
2023/08/30 08:33:22;;;;;;;9.77;7.72;;;15.90;99.90;;;;;;5084039;28;20025;-72
2023/08/30 08:35:49;;;;;;;10.50;8.77;;;16.00;99.90;;;;;;5042347;28;20109;-72
2023/08/30 08:38:15;;;;;;;11.15;8.65;;;16.10;99.90;;;;;;5039964;28;20053;-72
2023/08/30 08:40:41;;;;;;;8.48;7.68;;;16.10;99.90;;;;;;5041968;28;20057;-73
2023/08/30 08:43:09;;;;;;;11.27;8.43;;;16.20;99.90;;;;;;5039176;28;20043;-75
2023/08/30 08:45:38;;;;;;;9.93;7.60;;;16.40;99.90;;;;;;5043427;28;20017;-71
2023/08/30 08:48:07;;;;;;;11.82;8.18;;;16.50;99.90;;;;;;5041966;28;20090;-71
2023/08/30 08:50:34;;;;;;;11.70;8.23;;;16.50;99.90;;;;;;5042078;28;20017;-71
2023/08/30 08:53:03;;;;;;;10.93;8.15;;;16.40;99.90;;;;;;5043687;28;20477;-71
2023/08/30 08:55:30;;;;;;;11.13;8.40;;;16.40;99.90;;;;;;5045245;28;20071;-71
2023/08/30 08:57:57;;;;;;;10.88;8.45;;;16.50;99.90;;;;;;5039167;28;22798;-71
2023/08/30 09:00:24;;;;;;;9.57;7.97;;;16.40;99.90;;;;;;5041987;28;20119;-71
2023/08/30 09:02:51;;;;;;;11.35;8.15;;;16.50;99.90;;;;;;5042290;28;20094;-71
2023/08/30 09:05:19;;;;;;;10.95;8.65;;;16.50;99.90;;;;;;5042561;28;20599;-71
2023/08/30 09:07:46;;;;;;;9.65;8.13;;;16.60;99.90;;;;;;5045498;28;20071;-71
2023/08/30 09:10:12;;;;;;;9.05;7.22;;;16.60;99.90;;;;;;5047811;28;20109;-71
2023/08/30 09:12:38;;;;;;;10.60;7.82;;;16.60;99.90;;;;;;5043426;28;20104;-72
2023/08/30 09:15:04;;;;;;;9.65;7.55;;;16.60;99.90;;;;;;5045509;28;20013;-72
2023/08/30 09:17:37;;;;;;;8.32;7.03;;;16.60;99.90;;;;;;5036733;28;20087;-72
2023/08/30 09:20:11;;;;;;;10.18;7.55;;;16.60;99.90;;;;;;5043640;28;20104;-72
2023/08/30 09:22:41;;;;;;;8.63;6.80;;;16.70;99.90;;;;;;5040591;28;20047;-72
2023/08/30 09:25:22;;;;;;;10.38;7.00;;;16.70;99.90;;;;;;5045132;28;20024;-72
2023/08/30 09:27:48;;;;;;;6.70;6.10;;;16.60;99.90;;;;;;5045578;28;20029;-71
2023/08/30 09:30:14;;;;;;;7.55;6.53;;;16.70;99.90;;;;;;5027811;28;20017;-71
2023/08/30 09:32:41;;;;;;;6.57;5.55;;;16.70;99.90;;;;;;5040156;28;20025;-71
2023/08/30 09:35:08;;;;;;;7.93;5.75;;;16.70;99.90;;;;;;5044215;28;20116;-70
2023/08/30 09:37:34;;;;;;;6.38;5.55;;;16.80;99.90;;;;;;5050638;28;20024;-70
2023/08/30 09:40:00;;;;;;;7.82;6.22;;;16.90;99.90;;;;;;5042744;28;20053;-71
2023/08/30 09:42:26;;;;;;;7.68;6.93;;;16.90;99.90;;;;;;5044353;28;20147;-70
2023/08/30 09:44:52;;;;;;;7.22;6.53;;;17.00;99.90;;;;;;5043984;28;20063;-70
2023/08/30 09:47:18;;;;;;;6.72;6.03;;;17.10;99.90;;;;;;5042097;28;20485;-70
2023/08/30 09:49:46;;;;;;;7.05;5.38;;;17.10;99.90;;;;;;5042404;28;20017;-70
2023/08/30 09:52:15;;;;;;;7.65;6.28;;;17.20;99.90;;;;;;5037284;28;20496;-71
2023/08/30 09:54:43;;;;;;;6.90;6.20;;;17.10;99.90;;;;;;5045565;28;20552;-70
2023/08/30 09:57:13;;;;;;;6.45;5.72;;;17.10;99.90;;;;;;5037900;28;20044;-71
2023/08/30 09:59:39;;;;;;;7.47;5.80;;;17.20;99.90;;;;;;5055265;28;20111;-70
2023/08/30 10:02:06;;;;;;;6.15;5.40;;;17.20;99.90;;;;;;5050095;28;20108;-70
2023/08/30 10:04:33;;;;;;;8.27;6.13;;;17.30;99.90;;;;;;5045348;28;20025;-70
2023/08/30 10:07:04;;;;;;;6.15;5.53;;;17.30;99.90;;;;;;5044270;28;20437;-71
2023/08/30 10:09:30;;;;;;;5.65;4.95;;;17.40;99.90;;;;;;5070669;28;20030;-70
2023/08/30 10:11:58;;;;;;;6.65;6.00;;;17.50;99.90;;;;;;5043692;28;20098;-70
2023/08/30 10:14:23;;;;;;;6.55;5.75;;;17.60;99.90;;;;;;5051569;28;20025;-70
2023/08/30 10:16:51;;;;;;;5.32;4.82;;;17.60;99.90;;;;;;5043726;28;20040;-71
2023/08/30 10:19:25;;;;;;;7.00;5.00;;;17.70;99.90;;;;;;5046704;28;20107;-70
2023/08/30 10:22:04;;;;;;;5.40;4.82;;;17.80;99.90;;;;;;5043414;28;20037;-72
2023/08/30 10:24:51;;;;;;;7.10;5.55;;;18.00;99.90;;;;;;5045434;28;20056;-73
2023/08/30 10:27:18;;;;;;;7.00;5.20;;;18.00;99.90;;;;;;5044847;28;20113;-71
2023/08/30 10:29:45;;;;;;;5.63;5.03;;;18.30;99.90;;;;;;5042654;28;20017;-71
2023/08/30 10:32:11;;;;;;;5.63;4.70;;;18.40;99.90;;;;;;5042943;28;20034;-71
2023/08/30 10:34:37;;;;;;;6.75;5.15;;;18.60;99.90;;;;;;5046133;28;20032;-72
2023/08/30 10:37:06;;;;;;;5.18;4.78;;;18.60;99.90;;;;;;5042712;28;20543;-71
2023/08/30 10:39:37;;;;;;;6.88;4.30;;;18.50;99.90;;;;;;5045603;28;20018;-72
2023/08/30 10:42:14;;;;;;;4.68;4.28;;;18.50;99.90;;;;;;5042954;28;20080;-72
2023/08/30 10:44:50;;;;;;;7.13;5.10;;;18.60;99.90;;;;;;5042794;28;20025;-72
2023/08/30 10:47:30;;;;;;;5.43;4.93;;;18.70;99.90;;;;;;5045245;28;20080;-72
2023/08/30 10:50:00;;;;;;;4.93;4.50;;;18.90;99.90;;;;;;5047166;28;20020;-71
2023/08/30 10:52:30;;;;;;;5.60;5.10;;;19.20;99.90;;;;;;5053375;28;20668;-72
2023/08/30 10:55:07;;;;;;;4.70;4.15;;;19.20;99.90;;;;;;5045789;28;20143;-71
2023/08/30 10:57:33;;;;;;;6.30;4.75;;;19.30;99.90;;;;;;5042642;28;20065;-72
2023/08/30 11:00:11;;;;;;;5.18;4.68;;;19.30;99.90;;;;;;5074994;28;20167;-71
2023/08/30 11:02:37;;;;;;;5.90;5.40;;;19.20;99.90;;;;;;5043485;28;20500;-72
2023/08/30 11:05:06;;;;;;;6.10;5.43;;;19.30;99.90;;;;;;5042984;28;20028;-71
2023/08/30 11:07:32;;;;;;;8.38;5.88;;;19.30;99.90;;;;;;5045963;28;20107;-73
2023/08/30 11:09:58;;;;;;;7.22;5.60;;;19.30;99.90;;;;;;5048314;28;20030;-72
2023/08/30 11:12:25;;;;;;;6.60;4.70;;;19.30;99.90;;;;;;5043951;28;20040;-72
2023/08/30 11:14:55;;;;;;;5.35;4.85;;;19.40;99.90;;;;;;5051427;28;20028;-72
2023/08/30 11:17:21;;;;;;;6.35;5.75;;;19.50;99.90;;;;;;5046461;28;20033;-73
2023/08/30 11:19:51;;;;;;;6.88;5.55;;;19.50;99.90;;;;;;5041744;28;20029;-72
2023/08/30 11:22:17;;;;;;;5.40;4.95;;;19.50;99.90;;;;;;5046030;28;20041;-74
2023/08/30 11:24:46;;;;;;;5.75;5.03;;;19.50;99.90;;;;;;5044900;28;20556;-73
2023/08/30 11:27:11;;;;;;;5.85;5.30;;;19.40;99.90;;;;;;5046665;28;20045;-73
2023/08/30 11:29:40;;;;;;;7.03;5.45;;;19.30;99.90;;;;;;5040086;28;20053;-73
2023/08/30 11:32:08;;;;;;;6.30;5.70;;;19.30;99.90;;;;;;5045969;28;20032;-72
2023/08/30 11:34:33;;;;;;;5.60;5.13;;;19.30;99.90;;;;;;5081226;28;20049;-73
2023/08/30 11:36:59;;;;;;;11.68;6.20;;;19.30;99.90;;;;;;5042228;28;20087;-72
2023/08/30 11:39:28;;;;;;;6.00;5.53;;;19.20;99.90;;;;;;5048819;28;20486;-72
2023/08/30 11:41:55;;;;;;;6.55;5.75;;;19.20;99.90;;;;;;5042866;28;20021;-72
2023/08/30 11:44:23;;;;;;;6.85;6.15;;;19.00;99.90;;;;;;5044409;28;20031;-72
2023/08/30 11:46:57;;;;;;;6.63;5.80;;;19.00;99.90;;;;;;5043085;28;20022;-72
2023/08/30 11:49:22;;;;;;;7.35;6.60;;;18.80;99.90;;;;;;5043370;28;20083;-73
2023/08/30 11:51:48;;;;;;;8.10;6.97;;;18.80;99.90;;;;;;5039968;28;20016;-73
2023/08/30 11:54:15;;;;;;;8.65;7.07;;;18.80;99.90;;;;;;5052767;28;20949;-72
2023/08/30 11:56:41;;;;;;;9.40;7.13;;;18.90;99.90;;;;;;5039956;28;20074;-73
2023/08/30 11:59:17;;;;;;;8.90;7.50;;;18.80;99.90;;;;;;5037461;28;20100;-73
2023/08/30 12:01:43;;;;;;;10.73;7.70;;;18.80;99.90;;;;;;5043180;28;20073;-72
2023/08/30 12:04:10;;;;;;;8.38;6.95;;;18.80;99.90;;;;;;5045530;28;20052;-72
2023/08/30 12:06:36;;;;;;;8.40;7.25;;;18.80;99.90;;;;;;5039079;28;20030;-73
2023/08/30 12:09:04;;;;;;;8.15;6.60;;;18.90;99.90;;;;;;5042805;28;20036;-73
2023/08/30 12:11:31;;;;;;;7.55;6.85;;;18.90;99.90;;;;;;5049080;28;20056;-73
2023/08/30 12:14:02;;;;;;;6.88;6.28;;;19.00;99.90;;;;;;5038115;28;20037;-72
2023/08/30 12:16:28;;;;;;;8.85;6.88;;;19.10;99.90;;;;;;5039052;28;20083;-72
2023/08/30 12:18:53;;;;;;;6.90;6.20;;;19.00;99.90;;;;;;5037185;28;20379;-72
2023/08/30 12:21:19;;;;;;;6.65;5.43;;;19.00;99.90;;;;;;5044315;28;20040;-72
2023/08/30 12:23:45;;;;;;;9.55;7.25;;;19.10;99.90;;;;;;5039777;28;20035;-73
2023/08/30 12:26:11;;;;;;;9.32;6.50;;;19.10;99.90;;;;;;5041128;28;20064;-73
2023/08/30 12:28:44;;;;;;;6.45;5.85;;;19.20;99.90;;;;;;5078458;28;20081;-72
2023/08/30 12:31:10;;;;;;;8.05;5.78;;;19.30;99.90;;;;;;5046836;28;20083;-73
2023/08/30 12:33:37;;;;;;;8.15;6.03;;;19.10;99.90;;;;;;5042024;28;20021;-72